Time;durP1;ratioP1;P1;durP2;ratioP2;P2;SDS_P1;SDS_P2;PMS_P1;PMS_P2;Temp;Humidity;BMP_temperature;BMP_pressure;BME280_temperature;BME280_humidity;BME280_pressure;Samples;Min_cycle;Max_cycle;Signal;HPM_P1;HPM_P2
2024/04/03 00:01:11;;;;;;;2.83;0.80;;;7.50;56.10;;;2.88;100.00;95039.94;4948326;28;20061;-50
2024/04/03 00:03:38;;;;;;;1.63;0.90;;;7.50;56.10;;;2.85;100.00;95028.06;4942227;28;20418;-55
2024/04/03 00:06:05;;;;;;;1.80;0.80;;;7.50;56.10;;;2.85;100.00;95029.88;4952693;28;20417;-51
2024/04/03 00:08:31;;;;;;;2.13;0.70;;;7.50;56.10;;;2.86;100.00;95024.38;4943085;28;20019;-52
2024/04/03 00:10:57;;;;;;;2.20;0.80;;;7.50;56.10;;;2.89;100.00;95023.94;4948137;28;20053;-53
2024/04/03 00:13:22;;;;;;;4.43;0.80;;;7.50;56.20;;;2.90;100.00;95022.91;4940481;28;20027;-56
2024/04/03 00:15:49;;;;;;;1.10;0.75;;;7.50;56.30;;;2.91;100.00;95021.06;4947256;28;20031;-56
2024/04/03 00:18:15;;;;;;;1.70;0.80;;;7.50;56.30;;;2.83;100.00;95018.78;4942990;28;20019;-56
2024/04/03 00:20:41;;;;;;;0.90;0.68;;;7.50;56.30;;;2.81;100.00;95019.00;4946141;28;20042;-56
2024/04/03 00:23:07;;;;;;;1.33;0.77;;;7.50;56.30;;;2.81;100.00;95020.84;4952679;28;20027;-56
2024/04/03 00:25:33;;;;;;;0.82;0.70;;;7.50;56.40;;;2.82;100.00;95015.38;4943769;28;20031;-54
2024/04/03 00:27:58;;;;;;;1.10;0.80;;;7.50;56.40;;;2.79;100.00;95010.56;4949703;28;20022;-56
2024/04/03 00:30:24;;;;;;;1.60;0.70;;;7.50;56.40;;;2.73;100.00;95006.22;4946206;28;20030;-57
2024/04/03 00:32:50;;;;;;;2.00;0.68;;;7.50;56.40;;;2.71;100.00;95003.81;4947763;28;20032;-54
2024/04/03 00:35:16;;;;;;;0.93;0.73;;;7.50;56.50;;;2.70;100.00;95004.84;4950071;28;20181;-51
2024/04/03 00:37:42;;;;;;;2.35;0.73;;;7.50;56.50;;;2.69;100.00;94997.97;4944277;28;20037;-51
2024/04/03 00:40:09;;;;;;;1.45;0.60;;;7.40;56.50;;;2.76;100.00;95001.28;4950389;28;20066;-50
2024/04/03 00:42:35;;;;;;;0.85;0.50;;;7.50;56.70;;;2.74;100.00;94992.81;4938675;28;20037;-53
2024/04/03 00:45:01;;;;;;;1.85;0.60;;;7.50;56.70;;;2.79;100.00;94989.53;4955035;28;20481;-50
2024/04/03 00:47:27;;;;;;;7.55;0.70;;;7.40;56.80;;;2.84;100.00;94980.94;4938575;28;20031;-51
2024/04/03 00:49:54;;;;;;;3.78;0.82;;;7.50;56.80;;;2.83;100.00;94980.13;4946348;28;20477;-57
2024/04/03 00:52:20;;;;;;;0.75;0.40;;;7.40;56.80;;;2.92;100.00;94977.94;4945140;28;20043;-56
2024/04/03 00:54:47;;;;;;;1.70;0.70;;;7.50;57.00;;;2.96;100.00;94969.34;4942433;28;20068;-57
2024/04/03 00:57:14;;;;;;;2.85;0.70;;;7.50;57.00;;;2.99;100.00;94971.53;4945495;28;20081;-55
2024/04/03 00:59:42;;;;;;;3.38;0.60;;;7.50;57.00;;;3.00;100.00;94978.38;4944259;28;20030;-52
2024/04/03 01:02:09;;;;;;;0.70;0.50;;;7.60;57.00;;;3.01;100.00;94980.00;4945105;28;20027;-50
2024/04/03 01:04:36;;;;;;;3.47;0.90;;;7.60;57.00;;;2.97;100.00;94978.03;4945885;28;20073;-53
2024/04/03 01:07:09;;;;;;;0.82;0.50;;;7.60;57.00;;;2.93;100.00;94972.44;4952775;28;20568;-55
2024/04/03 01:09:36;;;;;;;1.05;0.60;;;7.60;57.00;;;2.92;100.00;94965.59;4952914;28;20054;-53
2024/04/03 01:12:04;;;;;;;2.22;0.57;;;7.50;56.90;;;2.90;100.00;94970.28;4980826;23;20057;-53
2024/04/03 01:14:30;;;;;;;4.63;0.60;;;7.60;56.90;;;2.87;100.00;94959.41;4971545;28;20183;-50
2024/04/03 01:16:57;;;;;;;1.85;0.70;;;7.50;56.90;;;2.80;100.00;94958.75;4971301;28;20032;-52
2024/04/03 01:19:23;;;;;;;3.75;0.70;;;7.50;56.80;;;2.73;100.00;94956.25;4971997;28;20084;-48
2024/04/03 01:21:49;;;;;;;1.85;0.60;;;7.50;56.90;;;2.71;100.00;94960.94;4959838;28;20027;-51
2024/04/03 01:24:20;;;;;;;1.58;0.82;;;7.40;56.80;;;2.64;100.00;94953.16;4952227;28;20045;-48
2024/04/03 01:26:46;;;;;;;1.60;0.50;;;7.50;56.90;;;2.60;100.00;94962.53;4952449;28;20038;-49
2024/04/03 01:29:13;;;;;;;0.85;0.60;;;7.40;56.90;;;2.55;100.00;94957.97;4951668;28;20149;-49
2024/04/03 01:31:39;;;;;;;1.73;0.70;;;7.40;57.00;;;2.49;100.00;94956.25;4952189;28;20022;-50
2024/04/03 01:34:04;;;;;;;1.45;0.63;;;7.30;57.00;;;2.51;100.00;94963.91;4952579;28;20041;-53
2024/04/03 01:36:30;;;;;;;1.35;0.70;;;7.30;57.10;;;2.51;100.00;94958.66;4949498;28;20034;-49
2024/04/03 01:38:56;;;;;;;0.77;0.60;;;7.30;57.10;;;2.45;100.00;94962.19;4948236;28;20476;-49
2024/04/03 01:41:22;;;;;;;0.68;0.47;;;7.30;57.10;;;2.36;100.00;94958.31;4950533;28;20113;-50
2024/04/03 01:43:48;;;;;;;0.88;0.60;;;7.30;57.10;;;2.30;100.00;94960.00;4955639;28;20029;-51
2024/04/03 01:46:14;;;;;;;0.88;0.50;;;7.20;57.10;;;2.24;100.00;94961.72;4952431;28;20481;-49
2024/04/03 01:48:40;;;;;;;0.95;0.65;;;7.20;57.20;;;2.20;100.00;94957.94;4951249;28;20026;-48
2024/04/03 01:51:06;;;;;;;0.60;0.55;;;7.10;57.20;;;2.17;100.00;94953.16;4952247;28;20026;-49
2024/04/03 01:53:32;;;;;;;1.35;0.60;;;7.10;57.30;;;2.13;100.00;94954.63;4948624;28;20026;-50
2024/04/03 01:55:59;;;;;;;0.82;0.70;;;7.00;57.50;;;2.14;100.00;94944.91;4951907;28;20077;-48
2024/04/03 01:58:26;;;;;;;1.08;0.50;;;7.00;57.60;;;2.15;100.00;94947.31;4951920;28;20437;-51
2024/04/03 02:00:52;;;;;;;1.00;0.73;;;7.00;58.40;;;2.17;100.00;94932.13;4950588;28;20037;-50
2024/04/03 02:03:20;;;;;;;0.90;0.50;;;7.00;57.90;;;2.17;100.00;94926.06;4951165;28;20457;-48
2024/04/03 02:05:48;;;;;;;1.38;0.60;;;7.00;58.20;;;2.15;100.00;94928.13;4950942;28;20022;-47
2024/04/03 02:08:15;;;;;;;0.68;0.57;;;7.10;58.00;;;2.13;100.00;94919.66;4951691;28;20113;-51
2024/04/03 02:10:43;;;;;;;0.70;0.50;;;7.10;58.00;;;2.12;100.00;94918.06;4951180;28;20529;-52
2024/04/03 02:13:09;;;;;;;0.98;0.50;;;7.10;58.00;;;2.12;100.00;94908.34;4947428;28;20401;-52
2024/04/03 02:15:35;;;;;;;2.40;0.73;;;7.10;58.00;;;2.12;100.00;94905.72;4951574;28;20045;-52
2024/04/03 02:18:02;;;;;;;1.05;0.45;;;7.10;58.10;;;2.12;100.00;94900.47;4953836;28;20041;-52
2024/04/03 02:20:28;;;;;;;1.95;0.77;;;7.10;58.10;;;2.14;100.00;94892.38;4955424;28;20424;-53
2024/04/03 02:22:54;;;;;;;1.50;0.60;;;7.10;58.00;;;2.16;100.00;94900.81;4951374;28;20037;-51
2024/04/03 02:25:20;;;;;;;1.52;0.70;;;7.10;58.10;;;2.17;100.00;94899.81;4951109;28;20041;-56
2024/04/03 02:27:47;;;;;;;3.25;0.50;;;7.10;58.20;;;2.14;100.00;94887.91;4951297;28;20030;-49
2024/04/03 02:30:13;;;;;;;1.15;0.63;;;7.10;58.20;;;2.20;100.00;94888.84;4950294;28;20022;-49
2024/04/03 02:32:39;;;;;;;1.27;0.70;;;7.10;58.20;;;2.22;100.00;94878.88;4950795;28;20030;-48
2024/04/03 02:35:06;;;;;;;1.20;0.60;;;7.10;58.30;;;2.23;100.00;94885.75;4950843;28;20031;-47
2024/04/03 02:37:32;;;;;;;0.65;0.60;;;7.10;58.40;;;2.26;100.00;94883.47;4951165;28;20432;-49
2024/04/03 02:39:58;;;;;;;2.05;0.77;;;7.20;58.50;;;2.30;100.00;94879.34;4950145;28;20114;-48
2024/04/03 02:42:24;;;;;;;5.00;0.80;;;7.20;58.60;;;2.37;100.00;94884.47;4949637;28;20049;-54
2024/04/03 02:44:50;;;;;;;0.57;0.50;;;7.20;59.30;;;2.41;100.00;94882.97;4955744;28;20117;-49
2024/04/03 02:47:17;;;;;;;0.82;0.70;;;7.30;58.70;;;2.45;100.00;94883.34;4950174;28;20271;-52
2024/04/03 02:49:43;;;;;;;1.38;0.60;;;7.30;58.70;;;2.51;100.00;94882.41;4951352;28;20042;-50
2024/04/03 02:52:09;;;;;;;0.90;0.60;;;7.30;58.70;;;2.55;100.00;94884.34;4950779;28;20381;-50
2024/04/03 02:54:34;;;;;;;2.05;0.70;;;7.40;58.80;;;2.61;100.00;94876.56;4949890;28;20046;-51
2024/04/03 02:57:00;;;;;;;2.25;0.70;;;7.50;58.80;;;2.66;100.00;94877.44;4950473;28;20038;-51
2024/04/03 02:59:26;;;;;;;3.15;0.70;;;7.50;58.80;;;2.71;100.00;94877.56;4950072;28;20474;-53
2024/04/03 03:01:52;;;;;;;0.60;0.60;;;7.60;58.80;;;2.74;100.00;94884.19;4947410;28;20037;-52
2024/04/03 03:04:23;;;;;;;2.83;0.60;;;7.60;58.70;;;2.77;100.00;94889.00;4951200;28;20030;-50
2024/04/03 03:06:49;;;;;;;2.53;0.52;;;7.70;58.80;;;2.79;100.00;94889.56;4947115;28;20535;-50
2024/04/03 03:09:21;;;;;;;4.75;0.70;;;7.70;58.70;;;2.85;100.00;94893.91;4950941;28;20049;-53
2024/04/03 03:11:48;;;;;;;0.97;0.60;;;7.70;58.80;;;2.92;100.00;94897.19;4963279;28;20060;-52
2024/04/03 03:14:14;;;;;;;0.93;0.60;;;7.80;58.70;;;2.92;100.00;94889.28;4950764;28;20656;-47
2024/04/03 03:16:40;;;;;;;1.08;0.55;;;7.80;58.60;;;2.93;100.00;94883.00;4950875;28;20118;-51
2024/04/03 03:19:06;;;;;;;1.67;0.70;;;7.80;58.60;;;2.95;100.00;94880.16;4949923;28;20031;-54
2024/04/03 03:21:32;;;;;;;1.38;0.65;;;7.80;58.60;;;2.98;100.00;94879.69;4953503;28;20034;-51
2024/04/03 03:23:58;;;;;;;6.00;0.80;;;7.90;58.70;;;2.99;100.00;94871.53;4949652;28;20050;-52
2024/04/03 03:26:24;;;;;;;0.75;0.50;;;7.90;58.70;;;3.03;100.00;94871.88;4940307;28;20425;-51
2024/04/03 03:28:50;;;;;;;0.52;0.50;;;7.90;58.70;;;3.05;100.00;94869.00;4950448;28;20125;-50
2024/04/03 03:31:18;;;;;;;0.50;0.50;;;7.90;58.80;;;3.06;100.00;94871.41;4949474;28;20452;-50
2024/04/03 03:33:44;;;;;;;1.05;0.57;;;8.00;58.80;;;3.13;100.00;94863.34;4948187;28;20370;-50
2024/04/03 03:36:10;;;;;;;1.52;0.80;;;8.00;58.90;;;3.19;100.00;94876.38;4944781;28;20033;-51
2024/04/03 03:38:35;;;;;;;0.63;0.40;;;8.10;58.90;;;3.22;100.00;94873.28;4949826;28;20027;-53
2024/04/03 03:41:05;;;;;;;2.60;0.60;;;8.10;58.90;;;3.27;100.00;94879.69;4949636;28;20405;-51
2024/04/03 03:43:31;;;;;;;0.85;0.55;;;8.10;59.00;;;3.32;100.00;94880.59;4956544;28;20481;-50
2024/04/03 03:45:57;;;;;;;1.42;0.70;;;8.20;59.00;;;3.38;100.00;94873.56;4950607;28;20084;-51
2024/04/03 03:54:03;;;;;;;0.68;0.63;;;8.30;59.00;;;3.48;100.00;94886.91;4948519;29;20034;-50
2024/04/03 03:56:29;;;;;;;0.60;0.60;;;8.30;58.90;;;3.50;100.00;94884.03;4950778;28;20037;-50
2024/04/03 03:58:55;;;;;;;0.80;0.55;;;8.40;58.90;;;3.55;100.00;94882.28;4950532;28;20023;-51
2024/04/03 04:01:21;;;;;;;2.67;1.67;;;8.40;58.90;;;3.55;100.00;94881.50;4949930;28;20512;-49
2024/04/03 04:03:47;;;;;;;1.10;0.80;;;8.40;59.00;;;3.57;100.00;94869.66;4950272;29;20023;-49
2024/04/03 04:06:13;;;;;;;1.65;0.60;;;8.50;59.00;;;3.65;100.00;94873.75;4949833;29;20038;-49
2024/04/03 04:08:39;;;;;;;2.08;0.82;;;8.50;59.00;;;3.69;100.00;94872.25;4953726;28;20038;-49
2024/04/03 04:11:05;;;;;;;1.63;0.75;;;8.50;59.00;;;3.71;100.00;94873.59;4953220;28;20058;-50
2024/04/03 04:13:31;;;;;;;1.23;0.73;;;8.50;59.00;;;3.74;100.00;94868.91;4954077;28;20108;-52
2024/04/03 04:16:02;;;;;;;1.00;0.70;;;8.60;59.00;;;3.82;100.00;94865.84;4953765;28;20030;-50
2024/04/03 04:18:29;;;;;;;0.98;0.70;;;8.60;59.00;;;3.93;100.00;94875.53;4953193;28;20054;-50
2024/04/03 04:20:58;;;;;;;2.22;0.50;;;8.70;59.00;;;3.98;100.00;94878.25;4963263;28;20045;-50
2024/04/03 04:23:24;;;;;;;0.98;0.60;;;8.80;59.00;;;4.04;100.00;94876.47;4953313;28;20050;-48
2024/04/03 04:26:06;;;;;;;2.45;0.68;;;8.80;58.80;;;4.08;100.00;94877.63;4964333;28;20053;-51
2024/04/03 04:28:33;;;;;;;2.20;0.50;;;8.90;58.90;;;4.10;100.00;94870.25;4954010;28;20109;-50
2024/04/03 04:31:05;;;;;;;0.88;0.70;;;8.90;58.70;;;4.17;100.00;94878.81;4951388;28;20117;-52
2024/04/03 04:33:37;;;;;;;1.08;0.50;;;9.00;58.80;;;4.18;100.00;94881.19;4953838;28;20454;-48
2024/04/03 04:36:04;;;;;;;1.40;0.50;;;9.00;59.30;;;4.23;100.00;94898.94;4950466;28;20035;-48
2024/04/03 04:38:30;;;;;;;1.73;0.70;;;9.00;58.60;;;4.26;100.00;94901.09;4953611;28;20035;-50
2024/04/03 04:41:03;;;;;;;1.88;0.85;;;9.10;58.60;;;4.28;100.00;94898.19;4953475;28;20122;-52
2024/04/03 04:43:32;;;;;;;1.23;0.60;;;9.10;58.60;;;4.28;100.00;94885.81;4958684;28;20464;-52
2024/04/03 04:46:06;;;;;;;2.28;0.70;;;9.10;58.40;;;4.26;100.00;94887.09;4953241;28;20377;-49
2024/04/03 04:48:33;;;;;;;1.02;0.63;;;9.20;58.40;;;4.28;100.00;94882.38;4952795;28;20023;-50
2024/04/03 04:51:02;;;;;;;1.45;0.82;;;9.20;58.30;;;4.27;100.00;94883.44;4950863;28;20037;-50
2024/04/03 04:53:29;;;;;;;3.13;1.30;;;9.20;58.30;;;4.22;100.00;94893.88;4952595;28;20027;-53
2024/04/03 04:56:08;;;;;;;2.50;1.40;;;9.20;58.30;;;4.33;100.00;94900.91;4952909;28;20038;-50
2024/04/03 04:58:34;;;;;;;1.55;0.70;;;9.20;58.30;;;4.35;100.00;94914.63;4953783;28;20022;-49
2024/04/03 05:01:07;;;;;;;1.55;0.82;;;9.20;58.20;;;4.38;100.00;94911.53;4952037;28;20045;-48
2024/04/03 05:03:36;;;;;;;1.75;0.70;;;9.30;58.40;;;4.39;100.00;94906.03;4950709;28;20073;-48
2024/04/03 05:06:04;;;;;;;1.15;0.73;;;9.30;58.30;;;4.43;100.00;94908.19;4945669;28;20519;-48
2024/04/03 05:08:31;;;;;;;3.33;0.80;;;9.30;58.20;;;4.43;100.00;94919.53;4952602;28;20100;-47
2024/04/03 05:10:59;;;;;;;1.30;0.73;;;9.30;58.20;;;4.41;100.00;94914.47;4947141;28;20118;-51
2024/04/03 05:13:34;;;;;;;2.13;0.90;;;9.40;58.20;;;4.46;100.00;94902.41;4946391;28;20110;-48
2024/04/03 05:16:12;;;;;;;2.08;0.85;;;9.40;58.10;;;4.50;100.00;94891.13;4964425;28;20039;-50
2024/04/03 05:18:42;;;;;;;2.92;0.85;;;9.40;58.20;;;4.52;100.00;94889.06;4943917;28;20027;-49
2024/04/03 05:21:08;;;;;;;0.95;0.70;;;9.40;58.20;;;4.54;100.00;94886.94;4956449;28;20029;-51
2024/04/03 05:23:34;;;;;;;0.95;0.82;;;9.50;58.10;;;4.56;100.00;94895.44;4952053;28;20015;-48
2024/04/03 05:26:07;;;;;;;1.38;0.90;;;9.50;58.10;;;4.54;100.00;94892.22;4951313;28;20462;-48
2024/04/03 05:28:35;;;;;;;;;;;9.50;58.10;;;4.60;100.00;94896.53;4951198;28;20507;-52
2024/04/03 05:31:10;;;;;;;2.08;0.75;;;9.50;58.50;;;4.61;100.00;94902.63;4951773;28;19914;-47
2024/04/03 05:33:38;;;;;;;3.13;1.15;;;9.50;58.00;;;4.65;100.00;94906.38;4953508;28;20031;-50
2024/04/03 05:36:08;;;;;;;2.35;1.00;;;9.60;58.00;;;4.68;100.00;94911.16;4950832;28;20249;-53
2024/04/03 05:38:35;;;;;;;2.05;0.77;;;9.60;58.00;;;4.70;100.00;94922.28;4956683;28;20022;-50
2024/04/03 05:41:02;;;;;;;3.38;0.80;;;9.70;57.90;;;4.72;100.00;94922.03;4952256;28;20834;-51
2024/04/03 05:43:28;;;;;;;3.78;0.95;;;9.70;57.90;;;4.78;100.00;94929.75;4953223;28;20027;-51
2024/04/03 05:45:56;;;;;;;1.42;1.05;;;9.70;58.00;;;4.81;100.00;94926.63;4951032;28;20109;-50
2024/04/03 05:48:26;;;;;;;3.83;1.00;;;9.80;58.10;;;4.83;100.00;94927.19;4949383;28;20027;-52
2024/04/03 05:51:10;;;;;;;2.78;1.27;;;9.80;58.10;;;4.88;100.00;94935.16;4953161;28;20428;-52
2024/04/03 05:53:36;;;;;;;3.10;0.80;;;9.80;58.30;;;4.86;100.00;94918.00;4950859;28;20499;-53
2024/04/03 05:56:04;;;;;;;1.13;0.88;;;9.90;58.30;;;4.94;100.00;94917.56;4952154;28;20031;-50
2024/04/03 05:58:30;;;;;;;3.30;1.02;;;9.90;58.40;;;4.99;100.00;94919.47;4952312;28;20141;-51
2024/04/03 06:00:59;;;;;;;1.17;0.90;;;9.80;58.40;;;4.93;100.00;94918.63;4946562;28;20026;-50
2024/04/03 06:03:25;;;;;;;1.92;0.98;;;9.90;59.10;;;4.93;100.00;94923.88;4948766;28;20485;-49
2024/04/03 06:05:56;;;;;;;2.53;0.80;;;9.90;58.60;;;5.05;100.00;94942.25;4963527;28;20029;-51
2024/04/03 06:08:23;;;;;;;1.10;0.70;;;9.90;58.60;;;5.15;100.00;94970.63;4951731;28;20031;-48
2024/04/03 06:10:51;;;;;;;1.40;1.00;;;10.00;58.60;;;5.12;100.00;94984.31;4951794;28;20513;-48
2024/04/03 06:13:17;;;;;;;2.63;1.60;;;10.00;58.70;;;5.15;100.00;94989.09;4963367;28;20059;-49
2024/04/03 06:15:44;;;;;;;4.55;1.50;;;10.00;58.70;;;5.15;100.00;94984.63;4948582;28;20039;-49
2024/04/03 06:18:12;;;;;;;3.22;1.58;;;10.10;58.70;;;5.19;100.00;94975.16;4948509;28;20158;-50
2024/04/03 06:20:38;;;;;;;4.10;2.13;;;10.10;58.70;;;5.22;100.00;94971.22;4955899;28;20026;-50
2024/04/03 06:23:05;;;;;;;5.25;2.13;;;10.10;58.60;;;5.26;100.00;94967.06;4951060;28;20053;-51
2024/04/03 06:25:31;;;;;;;4.30;1.60;;;10.10;58.60;;;5.30;100.00;94962.91;4951220;28;20045;-48
2024/04/03 06:27:57;;;;;;;2.33;1.52;;;10.20;58.70;;;5.32;100.00;94951.00;4951536;28;20026;-49
2024/04/03 06:30:23;;;;;;;3.50;1.98;;;10.30;58.70;;;5.35;100.00;94952.38;4945339;28;20494;-49
2024/04/03 06:32:50;;;;;;;2.20;1.42;;;10.30;58.70;;;5.38;100.00;94949.25;4950484;28;20050;-50
2024/04/03 06:35:16;;;;;;;4.65;1.60;;;10.40;58.70;;;5.44;100.00;94940.31;4945102;28;20041;-48
2024/04/03 06:37:42;;;;;;;7.03;3.47;;;10.40;58.70;;;5.48;100.00;94932.69;4951635;28;20038;-49
2024/04/03 06:40:09;;;;;;;5.65;2.40;;;10.50;58.80;;;5.52;100.00;94929.31;4951537;28;20354;-50
2024/04/03 06:42:37;;;;;;;4.18;2.17;;;10.60;58.80;;;5.57;100.00;94932.00;4949846;28;20038;-50
2024/04/03 06:45:05;;;;;;;7.15;4.55;;;10.60;58.80;;;5.59;100.00;94936.25;4954336;28;20050;-48
2024/04/03 06:47:30;;;;;;;5.80;2.33;;;10.60;58.80;;;5.66;100.00;94928.94;4951967;28;20088;-48
2024/04/03 06:49:57;;;;;;;3.05;2.13;;;10.70;58.80;;;5.69;100.00;94926.59;4951136;28;20019;-48
2024/04/03 06:52:27;;;;;;;1.65;0.90;;;10.80;58.90;;;5.64;100.00;94928.38;4951034;28;20378;-49
2024/04/03 06:54:55;;;;;;;1.90;1.15;;;10.80;58.90;;;5.75;100.00;94928.22;4948524;28;20034;-48
2024/04/03 06:57:22;;;;;;;2.03;1.20;;;10.90;58.80;;;5.83;100.00;94919.06;4947387;28;20049;-51
2024/04/03 06:59:48;;;;;;;3.40;1.20;;;11.00;58.70;;;5.94;100.00;94917.34;4946889;28;20022;-48
2024/04/03 07:02:14;;;;;;;1.58;1.10;;;11.10;58.60;;;6.05;100.00;94915.56;4949711;28;20456;-50
2024/04/03 07:04:41;;;;;;;1.95;1.10;;;11.30;58.50;;;6.19;100.00;94914.09;4948548;28;20022;-48
2024/04/03 07:07:08;;;;;;;1.88;1.02;;;11.50;58.40;;;6.39;100.00;94918.72;4949601;28;20026;-51
2024/04/03 07:09:37;;;;;;;3.28;1.17;;;11.70;58.30;;;6.56;100.00;94915.94;4948763;28;20023;-48
2024/04/03 07:12:05;;;;;;;3.28;0.93;;;11.80;58.20;;;6.69;100.00;94918.16;4952620;28;20101;-48
2024/04/03 07:14:31;;;;;;;1.10;1.00;;;11.90;58.10;;;6.76;98.77;94912.63;4950944;28;20121;-48
2024/04/03 07:16:57;;;;;;;3.15;1.35;;;12.00;58.00;;;6.87;98.01;94914.28;4955070;28;20121;-50
2024/04/03 07:19:23;;;;;;;2.85;1.30;;;12.20;57.80;;;7.02;98.49;94911.72;4946394;28;20448;-48
2024/04/03 07:21:49;;;;;;;2.58;1.05;;;12.30;57.70;;;7.17;98.00;94914.41;4950658;28;20037;-53
2024/04/03 07:24:15;;;;;;;1.63;1.10;;;12.50;57.50;;;7.33;97.93;94902.03;4949200;28;20096;-48
2024/04/03 07:26:41;;;;;;;2.90;0.88;;;12.70;57.40;;;7.50;97.26;94904.44;4947011;28;20118;-48
2024/04/03 07:29:12;;;;;;;1.38;0.93;;;12.90;57.30;;;7.67;96.04;94904.22;4945496;28;20026;-52
2024/04/03 07:31:38;;;;;;;3.20;1.10;;;13.00;57.10;;;7.82;94.70;94901.59;4948373;28;20027;-50
2024/04/03 07:34:04;;;;;;;2.10;0.90;;;13.20;57.00;;;7.94;93.71;94904.00;4946957;28;20033;-49
2024/04/03 07:36:30;;;;;;;1.13;0.93;;;13.30;56.70;;;8.08;92.47;94907.72;4946182;28;20041;-48
2024/04/03 07:38:56;;;;;;;2.95;0.98;;;13.50;56.60;;;8.22;92.21;94899.25;4947618;28;20038;-52
2024/04/03 07:41:30;;;;;;;3.22;0.90;;;13.60;56.40;;;8.36;91.62;94908.25;4944725;28;20478;-50
2024/04/03 07:43:57;;;;;;;1.48;1.00;;;13.70;56.30;;;8.50;91.23;94900.56;4952166;28;20066;-50
2024/04/03 07:46:23;;;;;;;1.95;1.02;;;13.80;56.00;;;8.57;88.68;94907.19;4951245;28;20378;-51
2024/04/03 07:48:49;;;;;;;2.15;0.98;;;14.00;55.90;;;8.76;85.16;94902.09;4951182;28;20030;-49
2024/04/03 07:51:15;;;;;;;3.15;1.10;;;14.30;55.50;;;9.14;84.87;94907.06;4950780;28;20563;-49
2024/04/03 07:53:42;;;;;;;1.35;1.00;;;14.80;55.20;;;9.46;79.00;94907.47;4950599;28;20352;-49
2024/04/03 07:56:08;;;;;;;1.98;1.35;;;15.20;54.60;;;9.80;75.08;94917.38;4944983;28;20058;-51
2024/04/03 07:58:34;;;;;;;1.10;1.00;;;15.60;53.90;;;10.20;72.98;94920.81;4951834;28;20054;-52
2024/04/03 08:01:02;;;;;;;1.67;1.10;;;16.10;53.20;;;10.60;69.02;94910.94;4949683;28;20442;-50
2024/04/03 08:03:28;;;;;;;2.40;1.13;;;16.50;52.30;;;10.97;67.92;94904.16;4950765;28;20029;-49
2024/04/03 08:05:55;;;;;;;0.85;0.77;;;16.90;51.70;;;11.21;63.98;94910.31;4949095;28;20097;-51
2024/04/03 08:08:28;;;;;;;1.15;0.95;;;17.10;50.80;;;11.39;65.81;94910.66;4949203;28;20482;-49
2024/04/03 08:11:04;;;;;;;0.88;0.80;;;17.30;50.30;;;11.65;61.43;94906.56;4948924;28;20050;-48
2024/04/03 08:13:31;;;;;;;2.05;1.05;;;17.60;49.60;;;11.95;62.38;94897.38;4945775;28;20022;-49
2024/04/03 08:16:08;;;;;;;2.25;1.02;;;17.90;49.10;;;12.33;59.35;94899.22;4945223;28;20053;-49
2024/04/03 08:18:35;;;;;;;4.03;1.10;;;18.40;48.30;;;12.73;57.42;94903.09;4946448;28;20470;-52
2024/04/03 08:21:06;;;;;;;1.13;0.88;;;18.90;47.80;;;13.15;56.10;94903.91;4947384;28;20528;-48
2024/04/03 08:23:34;;;;;;;2.92;0.90;;;19.40;46.60;;;13.27;54.60;94892.75;4942515;28;20029;-48
2024/04/03 08:26:09;;;;;;;1.33;1.10;;;19.80;45.90;;;13.58;53.31;94896.38;4951357;28;20030;-49
2024/04/03 08:28:41;;;;;;;1.40;1.10;;;20.20;44.90;;;13.84;53.70;94901.19;4949578;28;20081;-49
2024/04/03 08:31:16;;;;;;;1.30;1.00;;;20.50;44.20;;;14.26;51.47;94902.66;4947533;28;20030;-52
2024/04/03 08:33:43;;;;;;;3.00;0.90;;;20.90;43.40;;;14.61;50.70;94904.81;4951266;28;20286;-53
2024/04/03 08:36:10;;;;;;;1.60;0.90;;;21.30;42.80;;;14.74;48.80;94906.63;4982198;23;20072;-56
2024/04/03 08:38:37;;;;;;;2.55;1.10;;;21.60;41.80;;;14.83;47.61;94910.16;4967133;28;20030;-56
2024/04/03 08:41:04;;;;;;;2.08;1.15;;;21.70;40.90;;;14.87;46.67;94913.78;4966692;28;20049;-56
2024/04/03 08:43:31;;;;;;;1.48;1.20;;;21.80;40.00;;;15.00;47.99;94914.78;4969146;28;20078;-53
2024/04/03 08:45:58;;;;;;;1.85;1.00;;;22.00;39.40;;;15.31;47.83;94913.97;4967651;28;20112;-52
2024/04/03 08:48:25;;;;;;;2.45;1.10;;;22.20;39.20;;;15.36;47.71;94925.38;4964423;28;20027;-54
2024/04/03 08:50:56;;;;;;;2.13;1.20;;;22.30;38.90;;;15.32;46.17;94920.91;4954669;28;20543;-50
2024/04/03 08:53:24;;;;;;;3.85;0.90;;;22.40;38.00;;;15.09;46.16;94923.69;4965822;28;20497;-52
2024/04/03 08:55:54;;;;;;;2.25;1.20;;;22.40;37.50;;;15.03;46.82;94931.06;4966698;28;20100;-54
2024/04/03 08:58:22;;;;;;;2.08;1.10;;;22.50;37.00;;;14.89;47.38;94930.38;4967294;28;20030;-55
2024/04/03 09:00:50;;;;;;;2.70;1.25;;;22.60;36.80;;;15.02;47.65;94923.34;4967904;28;20025;-57
2024/04/03 09:03:17;;;;;;;4.00;1.20;;;22.60;36.30;;;15.06;48.03;94929.66;4970676;28;20751;-56
2024/04/03 09:05:43;;;;;;;1.58;1.02;;;22.50;36.20;;;14.85;47.08;94929.38;4969098;28;20512;-54
2024/04/03 09:08:11;;;;;;;1.25;1.00;;;22.40;35.90;;;14.31;47.92;94932.00;4965333;28;20367;-54
2024/04/03 09:11:01;;;;;;;2.38;1.10;;;22.30;35.40;;;13.89;47.57;94930.53;4969453;28;20030;-55
2024/04/03 09:13:27;;;;;;;4.88;1.20;;;22.10;34.80;;;13.65;48.66;94939.59;4964851;28;20157;-56
2024/04/03 09:15:54;;;;;;;1.70;1.10;;;21.90;34.50;;;13.58;49.04;94935.75;4967702;28;20240;-53
2024/04/03 09:18:20;;;;;;;1.55;1.10;;;21.70;34.60;;;13.71;49.61;94934.13;4970958;28;20469;-53
2024/04/03 09:20:51;;;;;;;4.30;1.80;;;21.60;34.70;;;13.80;49.71;94938.47;4969192;28;20041;-54
2024/04/03 09:23:20;;;;;;;1.35;1.00;;;21.60;34.90;;;14.19;50.34;94950.47;4964613;28;20054;-56
2024/04/03 09:25:48;;;;;;;3.42;1.08;;;21.80;35.10;;;14.59;49.76;94948.00;4965094;28;20034;-54
2024/04/03 09:28:14;;;;;;;1.83;1.20;;;22.00;35.30;;;14.69;49.32;94946.94;4962807;28;20076;-55
2024/04/03 09:30:47;;;;;;;2.60;1.23;;;22.00;35.20;;;14.46;49.49;94943.47;4963911;28;20034;-54
2024/04/03 09:33:16;;;;;;;2.03;1.17;;;21.90;34.90;;;14.12;51.04;94942.88;4961918;28;20022;-51
2024/04/03 09:35:44;;;;;;;3.03;1.20;;;21.80;35.10;;;13.86;51.54;94947.22;4967989;28;20052;-52
2024/04/03 09:38:10;;;;;;;3.55;1.40;;;21.50;35.30;;;13.63;54.38;94947.13;4964104;28;20030;-54
2024/04/03 09:40:39;;;;;;;1.30;1.20;;;21.20;35.90;;;13.33;59.19;94953.09;4967000;28;20389;-53
2024/04/03 09:43:11;;;;;;;1.77;1.20;;;20.90;36.70;;;12.96;61.10;94952.13;4946081;28;20069;-51
2024/04/03 09:45:39;;;;;;;4.00;1.60;;;20.60;37.50;;;12.67;62.14;94960.38;4967582;28;20473;-52
2024/04/03 09:48:09;;;;;;;1.70;1.13;;;20.20;38.20;;;12.36;63.75;94965.41;4964096;28;20486;-52
2024/04/03 09:50:41;;;;;;;3.17;1.02;;;19.80;39.00;;;12.27;66.67;94974.06;4967404;28;20045;-50
2024/04/03 09:53:16;;;;;;;3.53;1.27;;;19.40;40.00;;;12.22;68.58;94970.66;4968642;28;20034;-56
2024/04/03 09:55:46;;;;;;;1.48;0.95;;;19.00;40.80;;;11.71;67.47;94979.31;4969283;28;20018;-52
2024/04/03 09:58:18;;;;;;;1.58;0.80;;;18.70;41.50;;;11.40;73.42;94986.88;4962465;28;20393;-52
2024/04/03 10:01:16;;;;;;;1.83;1.17;;;18.40;42.30;;;11.47;75.03;94984.66;4969584;28;20468;-50
2024/04/03 10:03:42;;;;;;;1.85;0.98;;;18.00;43.10;;;11.46;77.18;94986.53;4971323;28;20037;-54
2024/04/03 10:06:20;;;;;;;2.58;1.48;;;17.80;44.20;;;11.29;80.84;94989.66;4968716;28;20021;-57
2024/04/03 10:08:48;;;;;;;1.90;1.20;;;17.50;45.30;;;11.08;81.52;94985.63;4971639;28;20022;-50
2024/04/03 10:11:16;;;;;;;1.73;1.17;;;17.40;45.80;;;11.14;79.20;94981.03;4969745;28;20018;-53
2024/04/03 10:13:44;;;;;;;1.60;1.17;;;17.30;46.20;;;11.08;81.89;94980.28;4970032;28;20026;-53
2024/04/03 10:16:13;;;;;;;2.72;1.30;;;17.20;46.50;;;11.07;82.34;94984.81;4970897;28;20057;-54
2024/04/03 10:18:42;;;;;;;2.42;1.52;;;17.10;47.00;;;11.15;85.28;94991.41;4968352;28;20109;-49
2024/04/03 10:21:13;;;;;;;1.38;1.23;;;17.10;47.50;;;11.25;87.69;94988.66;4970345;28;20463;-49
2024/04/03 10:23:50;;;;;;;2.55;1.33;;;17.10;48.20;;;11.11;87.91;94979.72;4969504;28;20042;-52
2024/04/03 10:26:20;;;;;;;3.60;1.55;;;17.10;48.70;;;10.99;88.70;94982.75;4970382;28;20123;-50
2024/04/03 10:28:47;;;;;;;2.55;1.35;;;17.00;48.90;;;10.97;90.40;94984.13;4970440;28;20140;-52
2024/04/03 10:31:21;;;;;;;1.80;1.45;;;17.10;49.00;;;10.93;92.35;94989.22;4970026;28;20032;-49